sensor_id;sensor_type;location;lat;lon;timestamp;P1;durP1;ratioP1;P2;durP2;ratioP2
84723;SDS011;74944;52.322;16.918;2024-02-26T00:00:07;71.32;;;33.25;;
84723;SDS011;74944;52.322;16.918;2024-02-26T00:02:37;72.47;;;33.60;;
84723;SDS011;74944;52.322;16.918;2024-02-26T00:05:06;72.68;;;34.78;;
84723;SDS011;74944;52.322;16.918;2024-02-26T00:07:33;61.58;;;29.67;;
84723;SDS011;74944;52.322;16.918;2024-02-26T00:09:58;62.17;;;29.10;;
84723;SDS011;74944;52.322;16.918;2024-02-26T00:12:24;61.50;;;28.73;;
84723;SDS011;74944;52.322;16.918;2024-02-26T00:14:50;63.38;;;29.50;;
84723;SDS011;74944;52.322;16.918;2024-02-26T00:17:16;61.92;;;30.38;;
84723;SDS011;74944;52.322;16.918;2024-02-26T00:19:41;60.78;;;29.63;;
84723;SDS011;74944;52.322;16.918;2024-02-26T00:22:07;69.18;;;32.53;;
84723;SDS011;74944;52.322;16.918;2024-02-26T00:24:33;57.88;;;28.33;;
84723;SDS011;74944;52.322;16.918;2024-02-26T00:26:59;59.00;;;27.92;;
84723;SDS011;74944;52.322;16.918;2024-02-26T00:29:25;56.47;;;27.25;;
84723;SDS011;74944;52.322;16.918;2024-02-26T00:31:51;62.97;;;27.48;;
84723;SDS011;74944;52.322;16.918;2024-02-26T00:34:16;61.70;;;31.95;;
84723;SDS011;74944;52.322;16.918;2024-02-26T00:36:42;59.95;;;28.95;;
84723;SDS011;74944;52.322;16.918;2024-02-26T00:39:08;68.13;;;32.30;;
84723;SDS011;74944;52.322;16.918;2024-02-26T00:41:38;59.35;;;29.05;;
84723;SDS011;74944;52.322;16.918;2024-02-26T00:44:04;66.18;;;33.40;;
84723;SDS011;74944;52.322;16.918;2024-02-26T00:46:30;65.88;;;30.50;;
84723;SDS011;74944;52.322;16.918;2024-02-26T00:48:55;56.63;;;28.23;;
84723;SDS011;74944;52.322;16.918;2024-02-26T00:51:21;73.28;;;32.58;;
84723;SDS011;74944;52.322;16.918;2024-02-26T00:53:47;68.55;;;32.20;;
84723;SDS011;74944;52.322;16.918;2024-02-26T00:56:13;68.18;;;31.40;;
84723;SDS011;74944;52.322;16.918;2024-02-26T00:58:39;61.65;;;29.00;;
84723;SDS011;74944;52.322;16.918;2024-02-26T01:01:05;77.05;;;35.22;;
84723;SDS011;74944;52.322;16.918;2024-02-26T01:03:34;71.40;;;31.42;;
84723;SDS011;74944;52.322;16.918;2024-02-26T01:06:01;68.25;;;33.65;;
84723;SDS011;74944;52.322;16.918;2024-02-26T01:08:26;78.85;;;35.83;;
84723;SDS011;74944;52.322;16.918;2024-02-26T01:10:52;86.70;;;38.90;;
84723;SDS011;74944;52.322;16.918;2024-02-26T01:13:18;88.70;;;40.97;;
84723;SDS011;74944;52.322;16.918;2024-02-26T01:15:43;86.10;;;42.22;;
84723;SDS011;74944;52.322;16.918;2024-02-26T01:18:09;102.32;;;44.47;;
84723;SDS011;74944;52.322;16.918;2024-02-26T01:20:35;210.60;;;59.35;;
84723;SDS011;74944;52.322;16.918;2024-02-26T01:23:01;118.88;;;46.83;;
84723;SDS011;74944;52.322;16.918;2024-02-26T01:25:28;97.57;;;41.97;;
84723;SDS011;74944;52.322;16.918;2024-02-26T01:27:53;98.78;;;43.95;;
84723;SDS011;74944;52.322;16.918;2024-02-26T01:30:19;116.07;;;48.78;;
84723;SDS011;74944;52.322;16.918;2024-02-26T01:32:45;112.97;;;46.78;;
84723;SDS011;74944;52.322;16.918;2024-02-26T01:35:11;137.50;;;51.63;;
84723;SDS011;74944;52.322;16.918;2024-02-26T01:37:39;133.48;;;50.67;;
84723;SDS011;74944;52.322;16.918;2024-02-26T01:40:05;108.22;;;46.35;;
84723;SDS011;74944;52.322;16.918;2024-02-26T01:42:32;130.18;;;48.35;;
84723;SDS011;74944;52.322;16.918;2024-02-26T01:44:58;121.90;;;48.97;;
84723;SDS011;74944;52.322;16.918;2024-02-26T01:47:25;254.57;;;58.80;;
84723;SDS011;74944;52.322;16.918;2024-02-26T01:49:52;230.13;;;57.55;;
84723;SDS011;74944;52.322;16.918;2024-02-26T01:52:18;280.38;;;67.18;;
84723;SDS011;74944;52.322;16.918;2024-02-26T01:54:44;173.13;;;59.67;;
84723;SDS011;74944;52.322;16.918;2024-02-26T01:57:11;257.80;;;63.13;;
84723;SDS011;74944;52.322;16.918;2024-02-26T01:59:39;206.38;;;60.17;;
84723;SDS011;74944;52.322;16.918;2024-02-26T02:02:06;149.65;;;58.83;;
84723;SDS011;74944;52.322;16.918;2024-02-26T02:04:35;123.10;;;54.67;;
84723;SDS011;74944;52.322;16.918;2024-02-26T02:07:02;175.25;;;59.42;;
84723;SDS011;74944;52.322;16.918;2024-02-26T02:09:28;272.30;;;63.60;;
84723;SDS011;74944;52.322;16.918;2024-02-26T02:11:54;149.85;;;56.63;;
84723;SDS011;74944;52.322;16.918;2024-02-26T02:14:21;166.27;;;51.95;;
84723;SDS011;74944;52.322;16.918;2024-02-26T02:16:47;96.47;;;41.30;;
84723;SDS011;74944;52.322;16.918;2024-02-26T02:19:13;97.97;;;42.03;;
84723;SDS011;74944;52.322;16.918;2024-02-26T02:21:39;121.88;;;42.55;;
84723;SDS011;74944;52.322;16.918;2024-02-26T02:24:05;158.35;;;49.08;;
84723;SDS011;74944;52.322;16.918;2024-02-26T02:26:31;211.23;;;49.92;;
84723;SDS011;74944;52.322;16.918;2024-02-26T02:28:58;106.97;;;45.38;;
84723;SDS011;74944;52.322;16.918;2024-02-26T02:31:25;129.93;;;43.58;;
84723;SDS011;74944;52.322;16.918;2024-02-26T02:33:52;95.25;;;40.47;;
84723;SDS011;74944;52.322;16.918;2024-02-26T02:36:17;97.85;;;40.00;;
84723;SDS011;74944;52.322;16.918;2024-02-26T02:38:50;137.40;;;44.15;;
84723;SDS011;74944;52.322;16.918;2024-02-26T02:41:16;97.05;;;38.10;;
84723;SDS011;74944;52.322;16.918;2024-02-26T02:43:44;115.53;;;41.65;;
84723;SDS011;74944;52.322;16.918;2024-02-26T02:46:09;106.18;;;38.13;;
84723;SDS011;74944;52.322;16.918;2024-02-26T02:48:41;116.97;;;41.63;;
84723;SDS011;74944;52.322;16.918;2024-02-26T02:51:07;97.20;;;40.35;;
84723;SDS011;74944;52.322;16.918;2024-02-26T02:53:33;106.15;;;41.35;;
84723;SDS011;74944;52.322;16.918;2024-02-26T02:55:58;86.38;;;39.22;;
84723;SDS011;74944;52.322;16.918;2024-02-26T02:58:24;74.63;;;33.13;;
84723;SDS011;74944;52.322;16.918;2024-02-26T03:00:50;94.03;;;36.78;;
84723;SDS011;74944;52.322;16.918;2024-02-26T03:03:16;78.50;;;36.83;;
84723;SDS011;74944;52.322;16.918;2024-02-26T03:05:41;120.80;;;39.13;;
84723;SDS011;74944;52.322;16.918;2024-02-26T03:08:08;83.38;;;37.83;;
84723;SDS011;74944;52.322;16.918;2024-02-26T03:10:33;82.97;;;36.95;;
84723;SDS011;74944;52.322;16.918;2024-02-26T03:12:59;86.18;;;38.28;;
84723;SDS011;74944;52.322;16.918;2024-02-26T03:15:25;101.47;;;39.72;;
84723;SDS011;74944;52.322;16.918;2024-02-26T03:17:50;90.60;;;36.92;;
84723;SDS011;74944;52.322;16.918;2024-02-26T03:20:16;106.07;;;42.25;;
84723;SDS011;74944;52.322;16.918;2024-02-26T03:22:46;79.15;;;37.60;;
84723;SDS011;74944;52.322;16.918;2024-02-26T03:25:11;79.28;;;36.00;;
84723;SDS011;74944;52.322;16.918;2024-02-26T03:27:37;105.28;;;42.00;;
84723;SDS011;74944;52.322;16.918;2024-02-26T03:30:03;93.25;;;39.13;;
84723;SDS011;74944;52.322;16.918;2024-02-26T03:32:29;68.40;;;33.72;;
84723;SDS011;74944;52.322;16.918;2024-02-26T03:34:55;78.35;;;36.05;;
84723;SDS011;74944;52.322;16.918;2024-02-26T03:37:22;79.15;;;35.70;;
84723;SDS011;74944;52.322;16.918;2024-02-26T03:39:48;73.40;;;32.75;;
84723;SDS011;74944;52.322;16.918;2024-02-26T03:42:15;71.65;;;33.80;;
84723;SDS011;74944;52.322;16.918;2024-02-26T03:44:41;104.80;;;41.25;;
84723;SDS011;74944;52.322;16.918;2024-02-26T03:47:08;101.18;;;41.83;;
84723;SDS011;74944;52.322;16.918;2024-02-26T03:49:33;145.40;;;44.75;;
84723;SDS011;74944;52.322;16.918;2024-02-26T03:51:59;101.55;;;42.05;;
84723;SDS011;74944;52.322;16.918;2024-02-26T03:54:25;89.72;;;41.03;;
84723;SDS011;74944;52.322;16.918;2024-02-26T03:56:52;112.40;;;43.78;;
84723;SDS011;74944;52.322;16.918;2024-02-26T03:59:18;90.82;;;38.65;;
84723;SDS011;74944;52.322;16.918;2024-02-26T04:01:45;92.60;;;41.08;;
84723;SDS011;74944;52.322;16.918;2024-02-26T04:04:12;117.53;;;41.97;;
84723;SDS011;74944;52.322;16.918;2024-02-26T04:06:39;107.80;;;43.78;;
84723;SDS011;74944;52.322;16.918;2024-02-26T04:09:04;176.35;;;50.05;;
84723;SDS011;74944;52.322;16.918;2024-02-26T04:11:34;122.35;;;46.75;;
84723;SDS011;74944;52.322;16.918;2024-02-26T04:14:00;176.02;;;50.63;;
84723;SDS011;74944;52.322;16.918;2024-02-26T04:16:26;165.35;;;52.42;;
84723;SDS011;74944;52.322;16.918;2024-02-26T04:18:51;176.27;;;50.70;;
84723;SDS011;74944;52.322;16.918;2024-02-26T04:21:22;121.05;;;48.88;;
84723;SDS011;74944;52.322;16.918;2024-02-26T04:23:47;147.88;;;49.50;;
84723;SDS011;74944;52.322;16.918;2024-02-26T04:26:14;126.63;;;47.80;;
84723;SDS011;74944;52.322;16.918;2024-02-26T04:28:41;96.72;;;42.35;;
84723;SDS011;74944;52.322;16.918;2024-02-26T04:31:07;99.72;;;43.83;;
84723;SDS011;74944;52.322;16.918;2024-02-26T04:33:37;107.75;;;43.63;;
84723;SDS011;74944;52.322;16.918;2024-02-26T04:36:03;107.55;;;46.70;;
84723;SDS011;74944;52.322;16.918;2024-02-26T04:38:29;99.22;;;45.78;;
84723;SDS011;74944;52.322;16.918;2024-02-26T04:40:57;81.32;;;37.92;;
84723;SDS011;74944;52.322;16.918;2024-02-26T04:43:23;107.78;;;43.70;;
84723;SDS011;74944;52.322;16.918;2024-02-26T04:45:49;87.22;;;42.95;;
84723;SDS011;74944;52.322;16.918;2024-02-26T04:48:15;86.95;;;42.78;;
84723;SDS011;74944;52.322;16.918;2024-02-26T04:50:42;86.90;;;39.88;;
84723;SDS011;74944;52.322;16.918;2024-02-26T04:53:08;79.75;;;40.35;;
84723;SDS011;74944;52.322;16.918;2024-02-26T04:55:37;90.40;;;38.75;;
84723;SDS011;74944;52.322;16.918;2024-02-26T04:58:03;73.53;;;34.45;;
84723;SDS011;74944;52.322;16.918;2024-02-26T05:00:31;82.78;;;38.72;;
84723;SDS011;74944;52.322;16.918;2024-02-26T05:02:56;127.05;;;44.70;;
84723;SDS011;74944;52.322;16.918;2024-02-26T05:05:24;82.68;;;39.03;;
84723;SDS011;74944;52.322;16.918;2024-02-26T05:07:52;91.68;;;38.63;;
84723;SDS011;74944;52.322;16.918;2024-02-26T05:10:18;86.63;;;39.22;;
84723;SDS011;74944;52.322;16.918;2024-02-26T05:12:44;79.43;;;38.08;;
84723;SDS011;74944;52.322;16.918;2024-02-26T05:15:11;76.25;;;37.92;;
84723;SDS011;74944;52.322;16.918;2024-02-26T05:17:38;119.75;;;43.35;;
84723;SDS011;74944;52.322;16.918;2024-02-26T05:20:04;75.93;;;37.60;;
84723;SDS011;74944;52.322;16.918;2024-02-26T05:22:33;76.40;;;37.00;;
84723;SDS011;74944;52.322;16.918;2024-02-26T05:25:00;76.00;;;36.20;;
84723;SDS011;74944;52.322;16.918;2024-02-26T05:27:27;80.57;;;38.42;;
84723;SDS011;74944;52.322;16.918;2024-02-26T05:29:53;78.50;;;36.08;;
84723;SDS011;74944;52.322;16.918;2024-02-26T05:32:19;80.45;;;36.35;;
84723;SDS011;74944;52.322;16.918;2024-02-26T05:34:45;71.75;;;36.95;;
84723;SDS011;74944;52.322;16.918;2024-02-26T05:37:11;74.15;;;37.75;;
84723;SDS011;74944;52.322;16.918;2024-02-26T05:39:38;65.28;;;33.83;;
84723;SDS011;74944;52.322;16.918;2024-02-26T05:42:04;85.00;;;38.72;;
84723;SDS011;74944;52.322;16.918;2024-02-26T05:44:30;76.85;;;36.72;;
84723;SDS011;74944;52.322;16.918;2024-02-26T05:46:57;79.20;;;41.60;;
84723;SDS011;74944;52.322;16.918;2024-02-26T05:49:22;101.57;;;41.45;;
84723;SDS011;74944;52.322;16.918;2024-02-26T05:51:48;148.52;;;50.83;;
84723;SDS011;74944;52.322;16.918;2024-02-26T05:54:14;111.82;;;47.00;;
84723;SDS011;74944;52.322;16.918;2024-02-26T05:56:40;98.35;;;45.17;;
84723;SDS011;74944;52.322;16.918;2024-02-26T05:59:06;93.85;;;41.55;;
84723;SDS011;74944;52.322;16.918;2024-02-26T06:01:32;76.18;;;37.22;;
84723;SDS011;74944;52.322;16.918;2024-02-26T06:03:59;81.20;;;37.67;;
84723;SDS011;74944;52.322;16.918;2024-02-26T06:06:25;92.82;;;42.10;;
84723;SDS011;74944;52.322;16.918;2024-02-26T06:08:51;89.57;;;42.50;;
84723;SDS011;74944;52.322;16.918;2024-02-26T06:11:16;120.13;;;49.58;;
84723;SDS011;74944;52.322;16.918;2024-02-26T06:13:43;164.13;;;83.03;;
84723;SDS011;74944;52.322;16.918;2024-02-26T06:16:08;103.53;;;48.13;;
84723;SDS011;74944;52.322;16.918;2024-02-26T06:18:34;110.90;;;49.25;;
84723;SDS011;74944;52.322;16.918;2024-02-26T06:21:00;100.30;;;46.08;;
84723;SDS011;74944;52.322;16.918;2024-02-26T06:23:26;106.60;;;46.17;;
84723;SDS011;74944;52.322;16.918;2024-02-26T06:25:52;90.00;;;43.00;;
84723;SDS011;74944;52.322;16.918;2024-02-26T06:28:20;103.68;;;45.75;;
84723;SDS011;74944;52.322;16.918;2024-02-26T06:30:47;99.65;;;44.95;;
84723;SDS011;74944;52.322;16.918;2024-02-26T06:33:18;124.47;;;53.20;;
84723;SDS011;74944;52.322;16.918;2024-02-26T06:35:43;111.93;;;48.75;;
84723;SDS011;74944;52.322;16.918;2024-02-26T06:38:09;109.20;;;48.38;;
84723;SDS011;74944;52.322;16.918;2024-02-26T06:40:36;109.13;;;51.05;;
84723;SDS011;74944;52.322;16.918;2024-02-26T06:43:04;111.32;;;50.42;;
84723;SDS011;74944;52.322;16.918;2024-02-26T06:45:29;114.18;;;51.67;;
84723;SDS011;74944;52.322;16.918;2024-02-26T06:47:56;114.30;;;51.30;;
84723;SDS011;74944;52.322;16.918;2024-02-26T06:50:23;105.90;;;48.88;;
84723;SDS011;74944;52.322;16.918;2024-02-26T06:52:49;106.18;;;52.35;;
84723;SDS011;74944;52.322;16.918;2024-02-26T06:55:14;107.00;;;49.40;;
84723;SDS011;74944;52.322;16.918;2024-02-26T06:57:40;103.78;;;48.88;;
84723;SDS011;74944;52.322;16.918;2024-02-26T07:00:06;103.35;;;49.20;;
84723;SDS011;74944;52.322;16.918;2024-02-26T07:02:32;108.97;;;50.75;;
84723;SDS011;74944;52.322;16.918;2024-02-26T07:04:58;110.30;;;48.05;;
84723;SDS011;74944;52.322;16.918;2024-02-26T07:07:24;109.95;;;51.75;;
84723;SDS011;74944;52.322;16.918;2024-02-26T07:09:50;120.78;;;53.60;;
84723;SDS011;74944;52.322;16.918;2024-02-26T07:12:18;118.82;;;57.97;;
84723;SDS011;74944;52.322;16.918;2024-02-26T07:14:46;138.13;;;65.18;;
84723;SDS011;74944;52.322;16.918;2024-02-26T07:17:12;137.02;;;66.78;;
84723;SDS011;74944;52.322;16.918;2024-02-26T07:19:38;147.40;;;69.43;;
84723;SDS011;74944;52.322;16.918;2024-02-26T07:22:04;122.93;;;62.38;;
84723;SDS011;74944;52.322;16.918;2024-02-26T07:24:31;125.70;;;63.88;;
84723;SDS011;74944;52.322;16.918;2024-02-26T07:26:59;150.30;;;67.65;;
84723;SDS011;74944;52.322;16.918;2024-02-26T07:29:25;115.68;;;57.78;;
84723;SDS011;74944;52.322;16.918;2024-02-26T07:31:51;127.80;;;60.80;;
84723;SDS011;74944;52.322;16.918;2024-02-26T07:34:16;131.90;;;63.75;;
84723;SDS011;74944;52.322;16.918;2024-02-26T07:36:43;136.45;;;61.88;;
84723;SDS011;74944;52.322;16.918;2024-02-26T07:39:11;129.10;;;62.63;;
84723;SDS011;74944;52.322;16.918;2024-02-26T07:41:38;133.88;;;62.72;;
84723;SDS011;74944;52.322;16.918;2024-02-26T07:44:04;121.18;;;57.00;;
84723;SDS011;74944;52.322;16.918;2024-02-26T07:46:30;109.63;;;54.10;;
84723;SDS011;74944;52.322;16.918;2024-02-26T07:48:55;119.28;;;59.15;;
84723;SDS011;74944;52.322;16.918;2024-02-26T07:51:23;105.82;;;54.03;;
84723;SDS011;74944;52.322;16.918;2024-02-26T07:53:49;117.95;;;57.63;;
84723;SDS011;74944;52.322;16.918;2024-02-26T07:56:15;122.20;;;57.10;;
84723;SDS011;74944;52.322;16.918;2024-02-26T07:58:40;113.63;;;55.40;;
84723;SDS011;74944;52.322;16.918;2024-02-26T08:01:06;111.03;;;56.05;;
84723;SDS011;74944;52.322;16.918;2024-02-26T08:03:33;108.68;;;52.95;;
84723;SDS011;74944;52.322;16.918;2024-02-26T08:05:59;97.15;;;47.80;;
84723;SDS011;74944;52.322;16.918;2024-02-26T08:08:24;91.38;;;47.75;;
84723;SDS011;74944;52.322;16.918;2024-02-26T08:10:50;89.28;;;44.40;;
84723;SDS011;74944;52.322;16.918;2024-02-26T08:13:16;86.47;;;44.60;;
84723;SDS011;74944;52.322;16.918;2024-02-26T08:15:43;84.30;;;44.38;;
84723;SDS011;74944;52.322;16.918;2024-02-26T08:18:10;85.85;;;45.33;;
84723;SDS011;74944;52.322;16.918;2024-02-26T08:20:36;83.13;;;43.58;;
84723;SDS011;74944;52.322;16.918;2024-02-26T08:23:03;83.72;;;46.75;;
84723;SDS011;74944;52.322;16.918;2024-02-26T08:25:29;81.75;;;43.42;;
84723;SDS011;74944;52.322;16.918;2024-02-26T08:27:55;73.55;;;43.83;;
84723;SDS011;74944;52.322;16.918;2024-02-26T08:30:21;69.53;;;38.90;;
84723;SDS011;74944;52.322;16.918;2024-02-26T08:32:47;68.88;;;37.22;;
84723;SDS011;74944;52.322;16.918;2024-02-26T08:35:13;64.90;;;37.38;;
84723;SDS011;74944;52.322;16.918;2024-02-26T08:37:43;58.83;;;34.33;;
84723;SDS011;74944;52.322;16.918;2024-02-26T08:40:10;59.00;;;30.95;;
84723;SDS011;74944;52.322;16.918;2024-02-26T08:42:36;64.10;;;32.75;;
84723;SDS011;74944;52.322;16.918;2024-02-26T08:45:02;56.88;;;31.75;;
84723;SDS011;74944;52.322;16.918;2024-02-26T08:47:28;60.65;;;31.02;;
84723;SDS011;74944;52.322;16.918;2024-02-26T08:49:54;56.05;;;32.20;;
84723;SDS011;74944;52.322;16.918;2024-02-26T08:52:20;59.70;;;30.95;;
84723;SDS011;74944;52.322;16.918;2024-02-26T08:54:50;59.40;;;32.17;;
84723;SDS011;74944;52.322;16.918;2024-02-26T08:57:15;58.42;;;31.00;;
84723;SDS011;74944;52.322;16.918;2024-02-26T08:59:41;58.95;;;32.80;;
84723;SDS011;74944;52.322;16.918;2024-02-26T09:02:07;53.38;;;29.33;;
84723;SDS011;74944;52.322;16.918;2024-02-26T09:04:36;55.25;;;29.90;;
84723;SDS011;74944;52.322;16.918;2024-02-26T09:07:02;48.72;;;27.85;;
84723;SDS011;74944;52.322;16.918;2024-02-26T09:09:28;52.47;;;29.02;;
84723;SDS011;74944;52.322;16.918;2024-02-26T09:11:54;54.17;;;27.65;;
84723;SDS011;74944;52.322;16.918;2024-02-26T09:14:21;47.08;;;27.58;;
84723;SDS011;74944;52.322;16.918;2024-02-26T09:16:47;52.53;;;25.75;;
84723;SDS011;74944;52.322;16.918;2024-02-26T09:19:16;44.38;;;24.75;;
84723;SDS011;74944;52.322;16.918;2024-02-26T09:21:43;46.00;;;25.40;;
84723;SDS011;74944;52.322;16.918;2024-02-26T09:24:10;42.72;;;24.35;;
84723;SDS011;74944;52.322;16.918;2024-02-26T09:26:36;49.28;;;24.33;;
84723;SDS011;74944;52.322;16.918;2024-02-26T09:29:02;45.30;;;23.85;;
84723;SDS011;74944;52.322;16.918;2024-02-26T09:31:29;42.72;;;22.88;;
84723;SDS011;74944;52.322;16.918;2024-02-26T09:33:55;44.33;;;24.17;;
84723;SDS011;74944;52.322;16.918;2024-02-26T09:36:21;47.75;;;23.92;;
84723;SDS011;74944;52.322;16.918;2024-02-26T09:38:47;38.38;;;22.42;;
84723;SDS011;74944;52.322;16.918;2024-02-26T09:41:16;38.20;;;21.88;;
84723;SDS011;74944;52.322;16.918;2024-02-26T09:43:45;38.08;;;20.77;;
84723;SDS011;74944;52.322;16.918;2024-02-26T09:46:14;40.88;;;21.95;;
84723;SDS011;74944;52.322;16.918;2024-02-26T09:48:43;39.47;;;21.67;;
84723;SDS011;74944;52.322;16.918;2024-02-26T09:51:11;39.47;;;22.27;;
84723;SDS011;74944;52.322;16.918;2024-02-26T09:53:38;40.53;;;21.77;;
84723;SDS011;74944;52.322;16.918;2024-02-26T09:56:08;38.72;;;21.63;;
84723;SDS011;74944;52.322;16.918;2024-02-26T09:58:33;42.15;;;22.27;;
84723;SDS011;74944;52.322;16.918;2024-02-26T10:01:02;39.28;;;22.23;;
84723;SDS011;74944;52.322;16.918;2024-02-26T10:03:34;41.90;;;20.83;;
84723;SDS011;74944;52.322;16.918;2024-02-26T10:06:06;36.47;;;19.60;;
84723;SDS011;74944;52.322;16.918;2024-02-26T10:08:34;38.60;;;20.98;;
84723;SDS011;74944;52.322;16.918;2024-02-26T10:11:02;37.20;;;19.25;;
84723;SDS011;74944;52.322;16.918;2024-02-26T10:13:29;36.15;;;20.08;;
84723;SDS011;74944;52.322;16.918;2024-02-26T10:15:55;34.80;;;20.05;;
84723;SDS011;74944;52.322;16.918;2024-02-26T10:18:22;33.05;;;19.58;;
84723;SDS011;74944;52.322;16.918;2024-02-26T10:21:01;34.03;;;18.98;;
84723;SDS011;74944;52.322;16.918;2024-02-26T10:23:27;33.33;;;19.77;;
84723;SDS011;74944;52.322;16.918;2024-02-26T10:25:54;31.45;;;17.25;;
84723;SDS011;74944;52.322;16.918;2024-02-26T10:28:24;33.22;;;17.05;;
84723;SDS011;74944;52.322;16.918;2024-02-26T10:30:51;29.13;;;15.90;;
84723;SDS011;74944;52.322;16.918;2024-02-26T10:33:17;27.70;;;16.15;;
84723;SDS011;74944;52.322;16.918;2024-02-26T10:35:46;30.17;;;18.10;;
84723;SDS011;74944;52.322;16.918;2024-02-26T10:38:13;33.42;;;18.20;;
84723;SDS011;74944;52.322;16.918;2024-02-26T10:40:38;35.97;;;18.48;;
84723;SDS011;74944;52.322;16.918;2024-02-26T10:43:04;28.33;;;18.25;;
84723;SDS011;74944;52.322;16.918;2024-02-26T10:45:30;29.55;;;14.75;;
84723;SDS011;74944;52.322;16.918;2024-02-26T10:47:57;30.05;;;15.23;;
84723;SDS011;74944;52.322;16.918;2024-02-26T10:50:24;24.95;;;14.25;;
84723;SDS011;74944;52.322;16.918;2024-02-26T10:52:51;25.80;;;15.88;;
84723;SDS011;74944;52.322;16.918;2024-02-26T10:55:19;28.52;;;15.63;;
84723;SDS011;74944;52.322;16.918;2024-02-26T10:57:48;23.55;;;13.55;;
84723;SDS011;74944;52.322;16.918;2024-02-26T11:00:17;24.73;;;14.73;;
84723;SDS011;74944;52.322;16.918;2024-02-26T11:02:44;25.48;;;15.00;;
84723;SDS011;74944;52.322;16.918;2024-02-26T11:05:11;29.05;;;16.25;;
84723;SDS011;74944;52.322;16.918;2024-02-26T11:07:37;24.42;;;14.85;;
84723;SDS011;74944;52.322;16.918;2024-02-26T11:10:05;23.40;;;14.10;;
84723;SDS011;74944;52.322;16.918;2024-02-26T11:12:32;22.02;;;13.15;;
84723;SDS011;74944;52.322;16.918;2024-02-26T11:15:00;24.88;;;13.15;;
84723;SDS011;74944;52.322;16.918;2024-02-26T11:17:27;24.95;;;14.07;;
84723;SDS011;74944;52.322;16.918;2024-02-26T11:19:57;22.45;;;14.32;;
84723;SDS011;74944;52.322;16.918;2024-02-26T11:22:25;23.45;;;12.18;;
84723;SDS011;74944;52.322;16.918;2024-02-26T11:24:52;26.83;;;14.32;;
84723;SDS011;74944;52.322;16.918;2024-02-26T11:27:21;23.70;;;13.57;;
84723;SDS011;74944;52.322;16.918;2024-02-26T11:29:51;22.27;;;12.75;;
84723;SDS011;74944;52.322;16.918;2024-02-26T11:32:19;22.15;;;13.07;;
84723;SDS011;74944;52.322;16.918;2024-02-26T11:34:45;26.10;;;13.10;;
84723;SDS011;74944;52.322;16.918;2024-02-26T11:37:12;20.00;;;11.65;;
84723;SDS011;74944;52.322;16.918;2024-02-26T11:39:39;20.92;;;12.32;;
84723;SDS011;74944;52.322;16.918;2024-02-26T11:42:08;23.90;;;12.43;;
84723;SDS011;74944;52.322;16.918;2024-02-26T11:44:35;20.70;;;12.35;;
84723;SDS011;74944;52.322;16.918;2024-02-26T11:47:14;21.95;;;12.25;;
84723;SDS011;74944;52.322;16.918;2024-02-26T11:49:43;23.65;;;12.90;;
84723;SDS011;74944;52.322;16.918;2024-02-26T11:52:09;23.02;;;12.38;;
84723;SDS011;74944;52.322;16.918;2024-02-26T11:54:48;19.70;;;11.43;;
84723;SDS011;74944;52.322;16.918;2024-02-26T11:57:49;17.67;;;11.65;;
84723;SDS011;74944;52.322;16.918;2024-02-26T12:00:12;20.67;;;11.73;;
84723;SDS011;74944;52.322;16.918;2024-02-26T12:02:51;21.63;;;11.48;;
84723;SDS011;74944;52.322;16.918;2024-02-26T12:05:23;21.52;;;12.05;;
84723;SDS011;74944;52.322;16.918;2024-02-26T12:07:53;21.85;;;11.43;;
84723;SDS011;74944;52.322;16.918;2024-02-26T12:10:26;19.80;;;11.85;;
84723;SDS011;74944;52.322;16.918;2024-02-26T12:13:15;18.50;;;11.02;;
84723;SDS011;74944;52.322;16.918;2024-02-26T12:15:45;20.17;;;12.20;;
84723;SDS011;74944;52.322;16.918;2024-02-26T12:18:20;21.67;;;12.07;;
84723;SDS011;74944;52.322;16.918;2024-02-26T12:20:47;21.40;;;12.30;;
84723;SDS011;74944;52.322;16.918;2024-02-26T12:23:25;18.63;;;11.50;;
84723;SDS011;74944;52.322;16.918;2024-02-26T12:25:50;21.38;;;11.57;;
84723;SDS011;74944;52.322;16.918;2024-02-26T12:28:16;21.40;;;10.70;;
84723;SDS011;74944;52.322;16.918;2024-02-26T12:30:42;19.60;;;11.05;;
84723;SDS011;74944;52.322;16.918;2024-02-26T12:33:07;19.75;;;10.98;;
84723;SDS011;74944;52.322;16.918;2024-02-26T12:35:34;20.40;;;12.07;;
84723;SDS011;74944;52.322;16.918;2024-02-26T12:38:01;18.45;;;10.70;;
84723;SDS011;74944;52.322;16.918;2024-02-26T12:40:29;16.70;;;10.88;;
84723;SDS011;74944;52.322;16.918;2024-02-26T12:42:55;20.80;;;11.05;;
84723;SDS011;74944;52.322;16.918;2024-02-26T12:45:21;20.48;;;11.60;;
84723;SDS011;74944;52.322;16.918;2024-02-26T12:47:47;20.00;;;10.55;;
84723;SDS011;74944;52.322;16.918;2024-02-26T12:50:15;20.35;;;11.00;;
84723;SDS011;74944;52.322;16.918;2024-02-26T12:52:45;20.05;;;11.30;;
84723;SDS011;74944;52.322;16.918;2024-02-26T12:55:16;23.77;;;12.27;;
84723;SDS011;74944;52.322;16.918;2024-02-26T12:57:45;32.53;;;21.13;;
84723;SDS011;74944;52.322;16.918;2024-02-26T13:00:18;34.67;;;23.58;;
84723;SDS011;74944;52.322;16.918;2024-02-26T13:02:50;49.30;;;27.88;;
84723;SDS011;74944;52.322;16.918;2024-02-26T13:05:18;40.80;;;18.40;;
84723;SDS011;74944;52.322;16.918;2024-02-26T13:07:47;23.25;;;12.75;;
84723;SDS011;74944;52.322;16.918;2024-02-26T13:10:13;19.42;;;10.60;;
84723;SDS011;74944;52.322;16.918;2024-02-26T13:12:43;19.65;;;11.15;;
84723;SDS011;74944;52.322;16.918;2024-02-26T13:15:15;21.70;;;12.05;;
84723;SDS011;74944;52.322;16.918;2024-02-26T13:17:43;21.98;;;11.05;;
84723;SDS011;74944;52.322;16.918;2024-02-26T13:20:10;20.95;;;11.30;;
84723;SDS011;74944;52.322;16.918;2024-02-26T13:22:36;20.35;;;10.85;;
84723;SDS011;74944;52.322;16.918;2024-02-26T13:25:02;18.08;;;9.98;;
84723;SDS011;74944;52.322;16.918;2024-02-26T13:27:28;17.13;;;10.18;;
84723;SDS011;74944;52.322;16.918;2024-02-26T13:30:16;19.52;;;10.75;;
84723;SDS011;74944;52.322;16.918;2024-02-26T13:32:41;18.55;;;10.30;;
84723;SDS011;74944;52.322;16.918;2024-02-26T13:35:09;21.50;;;10.75;;
84723;SDS011;74944;52.322;16.918;2024-02-26T13:37:36;18.17;;;10.98;;
84723;SDS011;74944;52.322;16.918;2024-02-26T13:40:06;19.83;;;11.05;;
84723;SDS011;74944;52.322;16.918;2024-02-26T13:42:36;20.70;;;11.90;;
84723;SDS011;74944;52.322;16.918;2024-02-26T13:45:02;19.90;;;11.07;;
84723;SDS011;74944;52.322;16.918;2024-02-26T13:47:32;20.73;;;11.10;;
84723;SDS011;74944;52.322;16.918;2024-02-26T13:49:58;18.60;;;11.23;;
84723;SDS011;74944;52.322;16.918;2024-02-26T13:52:24;19.75;;;10.43;;
84723;SDS011;74944;52.322;16.918;2024-02-26T13:54:51;19.48;;;10.88;;
84723;SDS011;74944;52.322;16.918;2024-02-26T13:57:17;21.17;;;11.80;;
84723;SDS011;74944;52.322;16.918;2024-02-26T13:59:44;18.13;;;9.77;;
84723;SDS011;74944;52.322;16.918;2024-02-26T14:02:09;22.30;;;10.77;;
84723;SDS011;74944;52.322;16.918;2024-02-26T14:04:36;21.50;;;11.07;;